Terminal Aerodrome Forecast
Issued by NWS

Home | Current Version | Previous Version | Text Only | Print | Product List | Glossary On
Versions: 1 2 3 4 5 6 7 8 9 10 11 12 13 14 15 16 17
164
FTUS41 KBGM 200306 AAA
TAFELM
TAF AMD
KELM 200306Z 2003/2024 29004KT 5SM BR BKN045
     FM200800 29004KT 1 1/2SM BR SCT010
      TEMPO 2009/2012 1/2SM FG VV001
     FM201300 29010KT P6SM SCT050=

USA.gov is the U.S. government's official web portal to all federal, state and local government web resources and services.